Wetterdaten: Donnerstag, 04.03.2010
Datum Zeit Temp. A. Feuchte A. Luftdruck Regen Wind Richtung Richtung Sonnenschein UV Solar Windben
04.03.2010 00:00 -0,6 C 87 % 1018,5 hPa 0,0 mm 0,0 km/h (0 Bft) N 0 0 min 0 UV-I 0 W/m 0,0 km/h (0 Bft)
04.03.2010 00:10 -0,7 C 87 % 1018,4 hPa 0,0 mm 0,0 km/h (0 Bft) N 0 0 min 0 UV-I 0 W/m 0,0 km/h (0 Bft)
04.03.2010 00:20 -0,8 C 88 % 1018,5 hPa 0,0 mm 0,0 km/h (0 Bft) N 0 0 min 0 UV-I 0 W/m 0,0 km/h (0 Bft)
04.03.2010 00:30 -0,8 C 88 % 1018,5 hPa 0,0 mm 0,0 km/h (0 Bft) N 0 0 min 0 UV-I 0 W/m 0,0 km/h (0 Bft)
04.03.2010 00:40 -1,0 C 88 % 1018,6 hPa 0,0 mm 0,0 km/h (0 Bft) N 0 0 min 0 UV-I 0 W/m 0,0 km/h (0 Bft)
04.03.2010 00:50 -1,1 C 89 % 1018,6 hPa 0,0 mm 0,0 km/h (0 Bft) N 0 0 min 0 UV-I 0 W/m 0,0 km/h (0 Bft)
04.03.2010 01:00 -1,2 C 88 % 1018,5 hPa 0,0 mm 0,0 km/h (0 Bft) N 0 0 min 0 UV-I 0 W/m 0,0 km/h (0 Bft)
04.03.2010 01:10 -1,2 C 88 % 1018,5 hPa 0,0 mm 0,0 km/h (0 Bft) N 0 0 min 0 UV-I 0 W/m 0,0 km/h (0 Bft)
04.03.2010 01:20 -1,3 C 89 % 1018,5 hPa 0,0 mm 0,0 km/h (0 Bft) N 0 0 min 0 UV-I 0 W/m 0,0 km/h (0 Bft)
04.03.2010 01:30 -1,4 C 89 % 1018,5 hPa 0,0 mm 0,0 km/h (0 Bft) N 0 0 min 0 UV-I 0 W/m 0,0 km/h (0 Bft)
04.03.2010 01:40 -1,6 C 89 % 1018,4 hPa 0,0 mm 0,0 km/h (0 Bft) N 0 0 min 0 UV-I 0 W/m 0,0 km/h (0 Bft)
04.03.2010 01:50 -1,7 C 89 % 1018,3 hPa 0,0 mm 0,0 km/h (0 Bft) N 0 0 min 0 UV-I 0 W/m 0,0 km/h (0 Bft)
04.03.2010 02:00 -1,7 C 89 % 1018,2 hPa 0,0 mm 0,0 km/h (0 Bft) N 0 0 min 0 UV-I 0 W/m 0,0 km/h (0 Bft)
04.03.2010 02:10 -1,8 C 90 % 1018,1 hPa 0,0 mm 0,0 km/h (0 Bft) N 0 0 min 0 UV-I 0 W/m 0,0 km/h (0 Bft)
04.03.2010 02:20 -1,8 C 89 % 1018,2 hPa 0,0 mm 0,0 km/h (0 Bft) N 0 0 min 0 UV-I 0 W/m 0,0 km/h (0 Bft)
04.03.2010 02:30 -1,9 C 89 % 1018,0 hPa 0,0 mm 0,0 km/h (0 Bft) N 0 0 min 0 UV-I 0 W/m 0,0 km/h (0 Bft)
04.03.2010 02:40 -2,1 C 90 % 1018,0 hPa 0,0 mm 0,0 km/h (0 Bft) N 0 0 min 0 UV-I 0 W/m 0,0 km/h (0 Bft)
04.03.2010 02:50 -2,0 C 90 % 1017,9 hPa 0,0 mm 0,0 km/h (0 Bft) NW 315 0 min 0 UV-I 0 W/m 1,6 km/h (1 Bft)
04.03.2010 03:00 -1,8 C 90 % 1017,9 hPa 0,0 mm 0,0 km/h (0 Bft) N 0 0 min 0 UV-I 0 W/m 0,0 km/h (0 Bft)
04.03.2010 03:10 -1,8 C 90 % 1017,9 hPa 0,0 mm 0,0 km/h (0 Bft) NW 315 0 min 0 UV-I 0 W/m 1,6 km/h (1 Bft)
04.03.2010 03:20 -1,9 C 90 % 1017,8 hPa 0,0 mm 0,0 km/h (0 Bft) N 0 0 min 0 UV-I 0 W/m 0,0 km/h (0 Bft)
04.03.2010 03:30 -2,0 C 90 % 1017,7 hPa 0,0 mm 0,0 km/h (0 Bft) N 0 0 min 0 UV-I 0 W/m 0,0 km/h (0 Bft)
04.03.2010 03:40 -2,2 C 90 % 1017,8 hPa 0,0 mm 0,0 km/h (0 Bft) N 0 0 min 0 UV-I 0 W/m 0,0 km/h (0 Bft)
04.03.2010 03:50 -2,2 C 90 % 1017,8 hPa 0,0 mm 0,0 km/h (0 Bft) N 0 0 min 0 UV-I 0 W/m 0,0 km/h (0 Bft)
04.03.2010 04:00 -2,3 C 90 % 1017,7 hPa 0,0 mm 0,0 km/h (0 Bft) N 0 0 min 0 UV-I 0 W/m 0,0 km/h (0 Bft)
04.03.2010 04:10 -2,3 C 90 % 1017,7 hPa 0,0 mm 0,0 km/h (0 Bft) N 0 0 min 0 UV-I 0 W/m 0,0 km/h (0 Bft)
04.03.2010 04:20 -2,6 C 90 % 1017,7 hPa 0,0 mm 0,0 km/h (0 Bft) N 0 0 min 0 UV-I 0 W/m 0,0 km/h (0 Bft)
04.03.2010 04:30 -2,7 C 90 % 1017,7 hPa 0,0 mm 0,0 km/h (0 Bft) N 0 0 min 0 UV-I 0 W/m 0,0 km/h (0 Bft)
04.03.2010 04:40 -2,8 C 90 % 1017,7 hPa 0,0 mm 0,0 km/h (0 Bft) N 0 0 min 0 UV-I 0 W/m 0,0 km/h (0 Bft)
04.03.2010 04:50 -2,8 C 90 % 1017,7 hPa 0,0 mm 0,0 km/h (0 Bft) N 0 0 min 0 UV-I 0 W/m 0,0 km/h (0 Bft)
04.03.2010 05:00 -3,0 C 90 % 1017,7 hPa 0,0 mm 0,0 km/h (0 Bft) N 0 0 min 0 UV-I 0 W/m 0,0 km/h (0 Bft)
04.03.2010 05:10 -3,1 C 90 % 1017,7 hPa 0,0 mm 0,0 km/h (0 Bft) N 0 0 min 0 UV-I 0 W/m 0,0 km/h (0 Bft)
04.03.2010 05:20 -3,2 C 90 % 1017,6 hPa 0,0 mm 0,0 km/h (0 Bft) N 0 0 min 0 UV-I 0 W/m 0,0 km/h (0 Bft)
04.03.2010 05:30 -3,3 C 90 % 1017,6 hPa 0,0 mm 0,0 km/h (0 Bft) N 0 0 min 0 UV-I 0 W/m 0,0 km/h (0 Bft)
04.03.2010 05:40 -3,4 C 90 % 1017,6 hPa 0,0 mm 0,0 km/h (0 Bft) N 0 0 min 0 UV-I 0 W/m 0,0 km/h (0 Bft)
04.03.2010 05:50 -3,6 C 90 % 1017,6 hPa 0,0 mm 0,0 km/h (0 Bft) N 0 0 min 0 UV-I 0 W/m 0,0 km/h (0 Bft)
04.03.2010 06:00 -3,7 C 91 % 1017,6 hPa 0,0 mm 0,0 km/h (0 Bft) N 0 0 min 0 UV-I 0 W/m 0,0 km/h (0 Bft)
04.03.2010 06:10 -3,7 C 90 % 1017,6 hPa 0,0 mm 0,0 km/h (0 Bft) N 0 0 min 0 UV-I 0 W/m 0,0 km/h (0 Bft)
04.03.2010 06:20 -3,7 C 91 % 1017,6 hPa 0,0 mm 0,0 km/h (0 Bft) N 0 0 min 0 UV-I 0 W/m 0,0 km/h (0 Bft)
04.03.2010 06:30 -3,8 C 90 % 1017,6 hPa 0,0 mm 0,0 km/h (0 Bft) N 0 0 min 0 UV-I 0 W/m 0,0 km/h (0 Bft)
04.03.2010 06:40 -3,9 C 91 % 1017,5 hPa 0,0 mm 0,0 km/h (0 Bft) N 0 0 min 0 UV-I 0 W/m 0,0 km/h (0 Bft)
04.03.2010 06:50 -3,8 C 91 % 1017,6 hPa 0,0 mm 0,0 km/h (0 Bft) N 0 0 min 0 UV-I 0 W/m 0,0 km/h (0 Bft)
04.03.2010 07:00 -3,9 C 90 % 1017,6 hPa 0,0 mm 0,0 km/h (0 Bft) N 0 0 min 0 UV-I 0 W/m 0,0 km/h (0 Bft)
04.03.2010 07:10 -4,0 C 90 % 1017,8 hPa 0,0 mm 0,0 km/h (0 Bft) N 0 0 min 0 UV-I 5 W/m 0,0 km/h (0 Bft)
04.03.2010 07:20 -4,1 C 91 % 1017,8 hPa 0,0 mm 0,0 km/h (0 Bft) N 0 0 min 0 UV-I 11 W/m 0,0 km/h (0 Bft)
04.03.2010 07:30 -4,1 C 91 % 1017,9 hPa 0,0 mm 0,0 km/h (0 Bft) N 0 0 min 0 UV-I 16 W/m 0,0 km/h (0 Bft)
04.03.2010 07:40 -4,0 C 90 % 1017,9 hPa 0,0 mm 0,0 km/h (0 Bft) N 0 0 min 0 UV-I 26 W/m 0,0 km/h (0 Bft)
04.03.2010 07:50 -3,8 C 91 % 1018,0 hPa 0,0 mm 0,0 km/h (0 Bft) N 0 0 min 0 UV-I 39 W/m 0,0 km/h (0 Bft)
04.03.2010 08:00 -3,1 C 91 % 1018,0 hPa 0,0 mm 0,0 km/h (0 Bft) NW 304 0 min 0 UV-I 28 W/m 0,0 km/h (0 Bft)
04.03.2010 08:10 -3,1 C 91 % 1018,0 hPa 0,0 mm 0,0 km/h (0 Bft) NW 304 10 min 0 UV-I 91 W/m 0,0 km/h (0 Bft)
04.03.2010 08:20 -2,8 C 91 % 1018,2 hPa 0,0 mm 0,0 km/h (0 Bft) N 0 10 min 0 UV-I 127 W/m 0,0 km/h (0 Bft)
04.03.2010 08:30 -2,4 C 91 % 1018,3 hPa 0,0 mm 0,0 km/h (0 Bft) N 0 10 min 0 UV-I 120 W/m 0,0 km/h (0 Bft)
04.03.2010 08:40 -2,2 C 91 % 1018,3 hPa 0,0 mm 0,0 km/h (0 Bft) NW 315 0 min 0 UV-I 105 W/m 1,6 km/h (1 Bft)
04.03.2010 08:50 -2,0 C 91 % 1018,4 hPa 0,0 mm 0,0 km/h (0 Bft) NW 315 10 min 1 UV-I 172 W/m 1,6 km/h (1 Bft)
04.03.2010 09:00 -1,6 C 92 % 1018,3 hPa 0,0 mm 0,0 km/h (0 Bft) NW 315 10 min 1 UV-I 285 W/m 3,2 km/h (1 Bft)
04.03.2010 09:10 -1,1 C 91 % 1018,4 hPa 0,0 mm 0,0 km/h (0 Bft) NW 315 10 min 1 UV-I 315 W/m 3,2 km/h (1 Bft)
04.03.2010 09:20 -0,8 C 91 % 1018,4 hPa 0,0 mm 0,0 km/h (0 Bft) NW 315 10 min 1 UV-I 301 W/m 3,2 km/h (1 Bft)
04.03.2010 09:30 -0,6 C 90 % 1018,5 hPa 0,0 mm 0,0 km/h (0 Bft) N-NW 337 10 min 1 UV-I 315 W/m 3,2 km/h (1 Bft)
04.03.2010 09:40 -0,4 C 89 % 1018,5 hPa 0,0 mm 0,0 km/h (0 Bft) N-NW 337 10 min 1 UV-I 360 W/m 3,2 km/h (1 Bft)
04.03.2010 09:50 -0,1 C 88 % 1018,5 hPa 0,0 mm 0,0 km/h (0 Bft) N-NW 337 10 min 1 UV-I 390 W/m 3,2 km/h (1 Bft)
04.03.2010 10:00 0,2 C 86 % 1018,6 hPa 0,0 mm 0,0 km/h (0 Bft) N-NW 337 10 min 1 UV-I 411 W/m 3,2 km/h (1 Bft)
04.03.2010 10:10 0,5 C 85 % 1018,6 hPa 0,0 mm 0,0 km/h (0 Bft) N-NW 337 10 min 1 UV-I 425 W/m 4,8 km/h (1 Bft)
04.03.2010 10:20 0,7 C 83 % 1018,7 hPa 0,0 mm 0,0 km/h (0 Bft) N-NW 337 10 min 1 UV-I 485 W/m 4,8 km/h (1 Bft)
04.03.2010 10:30 1,0 C 82 % 1018,7 hPa 0,0 mm 0,0 km/h (0 Bft) N-NW 337 10 min 1 UV-I 489 W/m 6,4 km/h (2 Bft)
04.03.2010 10:40 1,3 C 79 % 1018,8 hPa 0,0 mm 1,6 km/h (1 Bft) N 360 10 min 2 UV-I 585 W/m 6,4 km/h (2 Bft)
04.03.2010 10:50 1,7 C 76 % 1018,8 hPa 0,0 mm 3,2 km/h (1 Bft) N-NO 22 10 min 2 UV-I 584 W/m 8,0 km/h (2 Bft)
04.03.2010 11:00 1,7 C 75 % 1018,8 hPa 0,0 mm 3,2 km/h (1 Bft) N-NO 22 0 min 2 UV-I 253 W/m 6,4 km/h (2 Bft)
04.03.2010 11:10 1,8 C 73 % 1018,8 hPa 0,0 mm 1,6 km/h (1 Bft) NO 45 0 min 2 UV-I 186 W/m 8,0 km/h (2 Bft)
04.03.2010 11:20 2,2 C 70 % 1018,8 hPa 0,0 mm 3,2 km/h (1 Bft) N 360 10 min 2 UV-I 670 W/m 11,3 km/h (2 Bft)
04.03.2010 11:30 2,7 C 67 % 1018,8 hPa 0,0 mm 3,2 km/h (1 Bft) N-NO 22 10 min 2 UV-I 656 W/m 9,7 km/h (2 Bft)
04.03.2010 11:40 2,6 C 65 % 1018,8 hPa 0,0 mm 3,2 km/h (1 Bft) N-NO 22 10 min 2 UV-I 722 W/m 16,1 km/h (3 Bft)
04.03.2010 11:50 3,1 C 64 % 1018,8 hPa 0,0 mm 6,4 km/h (2 Bft) N-NO 22 10 min 2 UV-I 747 W/m 17,7 km/h (3 Bft)
04.03.2010 12:00 3,3 C 62 % 1018,8 hPa 0,0 mm 4,8 km/h (1 Bft) N-NO 22 10 min 2 UV-I 759 W/m 14,5 km/h (3 Bft)
04.03.2010 12:10 2,7 C 64 % 1018,9 hPa 0,0 mm 3,2 km/h (1 Bft) N-NO 22 0 min 2 UV-I 250 W/m 11,3 km/h (2 Bft)
04.03.2010 12:20 3,3 C 62 % 1018,9 hPa 0,0 mm 4,8 km/h (1 Bft) N-NO 22 10 min 2 UV-I 786 W/m 16,1 km/h (3 Bft)
04.03.2010 12:30 3,5 C 63 % 1018,9 hPa 0,0 mm 3,2 km/h (1 Bft) N 360 0 min 1 UV-I 234 W/m 14,5 km/h (3 Bft)
04.03.2010 12:40 2,9 C 63 % 1018,9 hPa 0,0 mm 3,2 km/h (1 Bft) N-NW 337 10 min 2 UV-I 752 W/m 11,3 km/h (2 Bft)
04.03.2010 12:50 3,3 C 64 % 1018,8 hPa 0,0 mm 3,2 km/h (1 Bft) N-NO 22 10 min 2 UV-I 805 W/m 16,1 km/h (3 Bft)
04.03.2010 13:00 3,1 C 64 % 1018,7 hPa 0,0 mm 3,2 km/h (1 Bft) N 360 0 min 1 UV-I 243 W/m 14,5 km/h (3 Bft)
04.03.2010 13:10 3,1 C 63 % 1018,7 hPa 0,0 mm 1,6 km/h (1 Bft) NW 315 0 min 1 UV-I 283 W/m 14,5 km/h (3 Bft)
04.03.2010 13:20 3,2 C 63 % 1018,7 hPa 0,0 mm 3,2 km/h (1 Bft) N-NO 22 0 min 1 UV-I 227 W/m 8,0 km/h (2 Bft)
04.03.2010 13:30 3,3 C 64 % 1018,7 hPa 0,0 mm 4,8 km/h (1 Bft) N-NO 22 0 min 1 UV-I 211 W/m 11,3 km/h (2 Bft)
04.03.2010 13:40 3,3 C 63 % 1018,6 hPa 0,0 mm 3,2 km/h (1 Bft) N 360 0 min 1 UV-I 258 W/m 14,5 km/h (3 Bft)
04.03.2010 13:50 3,4 C 61 % 1018,6 hPa 0,0 mm 3,2 km/h (1 Bft) N 360 0 min 1 UV-I 250 W/m 11,3 km/h (2 Bft)
04.03.2010 14:00 3,3 C 64 % 1018,7 hPa 0,0 mm 3,2 km/h (1 Bft) W-NW 292 0 min 1 UV-I 223 W/m 9,7 km/h (2 Bft)
04.03.2010 14:10 3,3 C 66 % 1018,7 hPa 0,0 mm 3,2 km/h (1 Bft) W-NW 292 0 min 1 UV-I 123 W/m 17,7 km/h (3 Bft)
04.03.2010 14:20 3,3 C 63 % 1018,7 hPa 0,0 mm 1,6 km/h (1 Bft) N 360 0 min 2 UV-I 171 W/m 16,1 km/h (3 Bft)
04.03.2010 14:30 3,8 C 62 % 1018,6 hPa 0,0 mm 3,2 km/h (1 Bft) N-NW 337 10 min 2 UV-I 679 W/m 11,3 km/h (2 Bft)
04.03.2010 14:40 3,8 C 62 % 1018,7 hPa 0,0 mm 3,2 km/h (1 Bft) W-NW 292 0 min 1 UV-I 146 W/m 11,3 km/h (2 Bft)
04.03.2010 14:50 3,7 C 62 % 1018,7 hPa 0,0 mm 3,2 km/h (1 Bft) N 360 10 min 1 UV-I 661 W/m 11,3 km/h (2 Bft)
04.03.2010 15:00 4,1 C 60 % 1018,6 hPa 0,0 mm 3,2 km/h (1 Bft) N-NO 22 10 min 1 UV-I 543 W/m 16,1 km/h (3 Bft)
04.03.2010 15:10 4,1 C 55 % 1018,6 hPa 0,0 mm 3,2 km/h (1 Bft) N 360 10 min 1 UV-I 513 W/m 11,3 km/h (2 Bft)
04.03.2010 15:20 4,4 C 56 % 1018,5 hPa 0,0 mm 3,2 km/h (1 Bft) W-NW 292 10 min 1 UV-I 499 W/m 19,3 km/h (3 Bft)
04.03.2010 15:30 4,5 C 54 % 1018,5 hPa 0,0 mm 3,2 km/h (1 Bft) N 360 10 min 1 UV-I 441 W/m 14,5 km/h (3 Bft)
04.03.2010 15:40 4,3 C 56 % 1018,5 hPa 0,0 mm 4,8 km/h (1 Bft) N-NO 22 0 min 1 UV-I 135 W/m 16,1 km/h (3 Bft)
04.03.2010 15:50 3,9 C 58 % 1018,6 hPa 0,0 mm 3,2 km/h (1 Bft) N 360 0 min 1 UV-I 67 W/m 14,5 km/h (3 Bft)
04.03.2010 16:00 3,4 C 59 % 1018,5 hPa 0,0 mm 1,7 km/h (1 Bft) N 355 0 min 0 UV-I 37 W/m 6,4 km/h (2 Bft)
04.03.2010 16:10 3,3 C 59 % 1018,6 hPa 0,0 mm 1,6 km/h (1 Bft) N 360 0 min 0 UV-I 39 W/m 6,4 km/h (2 Bft)
04.03.2010 16:20 3,2 C 58 % 1018,5 hPa 0,0 mm 1,6 km/h (1 Bft) N-NO 22 0 min 0 UV-I 65 W/m 14,5 km/h (3 Bft)
04.03.2010 16:30 3,2 C 59 % 1018,6 hPa 0,0 mm 0,0 km/h (0 Bft) N 360 10 min 1 UV-I 200 W/m 6,4 km/h (2 Bft)
04.03.2010 16:40 3,4 C 59 % 1018,7 hPa 0,0 mm 1,6 km/h (1 Bft) N 360 0 min 0 UV-I 58 W/m 17,7 km/h (3 Bft)
04.03.2010 16:50 3,3 C 61 % 1018,7 hPa 0,0 mm 1,6 km/h (1 Bft) N-NO 22 10 min 0 UV-I 200 W/m 8,0 km/h (2 Bft)
04.03.2010 17:00 3,5 C 60 % 1018,8 hPa 0,0 mm 1,6 km/h (1 Bft) N 360 10 min 0 UV-I 188 W/m 11,3 km/h (2 Bft)
04.03.2010 17:10 3,7 C 57 % 1018,9 hPa 0,0 mm 1,6 km/h (1 Bft) W-NW 292 10 min 0 UV-I 163 W/m 9,7 km/h (2 Bft)
04.03.2010 17:20 3,9 C 50 % 1019,0 hPa 0,0 mm 4,8 km/h (1 Bft) N-NO 22 10 min 0 UV-I 163 W/m 20,9 km/h (4 Bft)
04.03.2010 17:30 3,8 C 47 % 1019,1 hPa 0,0 mm 4,8 km/h (1 Bft) N 360 10 min 0 UV-I 135 W/m 16,1 km/h (3 Bft)
04.03.2010 17:40 3,4 C 46 % 1019,3 hPa 0,0 mm 4,8 km/h (1 Bft) N-NW 337 10 min 0 UV-I 67 W/m 19,3 km/h (3 Bft)
04.03.2010 17:50 3,2 C 49 % 1019,4 hPa 0,0 mm 3,2 km/h (1 Bft) N-NO 22 10 min 0 UV-I 42 W/m 16,1 km/h (3 Bft)
04.03.2010 18:00 2,9 C 51 % 1019,6 hPa 0,0 mm 3,2 km/h (1 Bft) N-NW 337 0 min 0 UV-I 18 W/m 19,3 km/h (3 Bft)
04.03.2010 18:10 2,6 C 52 % 1019,7 hPa 0,0 mm 3,2 km/h (1 Bft) N-NO 22 0 min 0 UV-I 9 W/m 14,5 km/h (3 Bft)
04.03.2010 18:20 2,3 C 55 % 1020,0 hPa 0,0 mm 4,8 km/h (1 Bft) N 360 0 min 0 UV-I 0 W/m 14,5 km/h (3 Bft)
04.03.2010 18:30 2,0 C 55 % 1020,2 hPa 0,0 mm 3,2 km/h (1 Bft) N 360 0 min 0 UV-I 0 W/m 17,7 km/h (3 Bft)
04.03.2010 18:40 1,8 C 54 % 1020,3 hPa 0,0 mm 4,8 km/h (1 Bft) N 360 0 min 0 UV-I 0 W/m 16,1 km/h (3 Bft)
04.03.2010 18:50 1,6 C 54 % 1020,4 hPa 0,0 mm 3,2 km/h (1 Bft) N-NO 22 0 min 0 UV-I 0 W/m 11,3 km/h (2 Bft)
04.03.2010 19:00 1,3 C 55 % 1020,6 hPa 0,0 mm 1,6 km/h (1 Bft) N 360 0 min 0 UV-I 0 W/m 9,7 km/h (2 Bft)
04.03.2010 19:10 1,1 C 56 % 1020,7 hPa 0,0 mm 0,0 km/h (0 Bft) N-NO 22 0 min 0 UV-I 0 W/m 6,4 km/h (2 Bft)
04.03.2010 19:20 0,8 C 57 % 1020,7 hPa 0,0 mm 0,0 km/h (0 Bft) N-NO 22 0 min 0 UV-I 0 W/m 3,2 km/h (1 Bft)
04.03.2010 19:30 0,5 C 59 % 1020,8 hPa 0,0 mm 0,0 km/h (0 Bft) N-NO 22 0 min 0 UV-I 0 W/m 4,8 km/h (1 Bft)
04.03.2010 19:40 0,2 C 61 % 1020,9 hPa 0,0 mm 0,0 km/h (0 Bft) N-NO 22 0 min 0 UV-I 0 W/m 4,8 km/h (1 Bft)
04.03.2010 19:50 0,2 C 62 % 1020,9 hPa 0,0 mm 0,0 km/h (0 Bft) N-NO 22 0 min 0 UV-I 0 W/m 4,8 km/h (1 Bft)
04.03.2010 20:00 0,2 C 63 % 1021,1 hPa 0,0 mm 0,0 km/h (0 Bft) N-NO 22 0 min 0 UV-I 0 W/m 8,0 km/h (2 Bft)
04.03.2010 20:10 0,2 C 63 % 1021,0 hPa 0,0 mm 0,0 km/h (0 Bft) N-NO 22 0 min 0 UV-I 0 W/m 8,0 km/h (2 Bft)
04.03.2010 20:20 0,2 C 63 % 1021,1 hPa 0,0 mm 0,0 km/h (0 Bft) N-NO 22 0 min 0 UV-I 0 W/m 4,8 km/h (1 Bft)
04.03.2010 20:30 0,1 C 64 % 1021,2 hPa 0,0 mm 1,6 km/h (1 Bft) N-NO 22 0 min 0 UV-I 0 W/m 9,7 km/h (2 Bft)
04.03.2010 20:40 0,1 C 66 % 1021,3 hPa 0,0 mm 1,6 km/h (1 Bft) N 360 0 min 0 UV-I 0 W/m 8,0 km/h (2 Bft)
04.03.2010 20:50 0,1 C 69 % 1021,3 hPa 0,0 mm 0,0 km/h (0 Bft) N-NO 22 0 min 0 UV-I 0 W/m 4,8 km/h (1 Bft)
04.03.2010 21:00 -0,1 C 70 % 1021,5 hPa 0,0 mm 1,6 km/h (1 Bft) N-NO 22 0 min 0 UV-I 0 W/m 8,0 km/h (2 Bft)
04.03.2010 21:10 -0,2 C 70 % 1021,6 hPa 0,0 mm 1,6 km/h (1 Bft) N-NO 22 0 min 0 UV-I 0 W/m 11,3 km/h (2 Bft)
04.03.2010 21:20 -0,4 C 71 % 1021,7 hPa 0,0 mm 1,6 km/h (1 Bft) N-NO 22 0 min 0 UV-I 0 W/m 8,0 km/h (2 Bft)
04.03.2010 21:30 -0,6 C 71 % 1021,7 hPa 0,0 mm 0,0 km/h (0 Bft) N 360 0 min 0 UV-I 0 W/m 8,0 km/h (2 Bft)
04.03.2010 21:40 -0,8 C 67 % 1021,8 hPa 0,0 mm 3,2 km/h (1 Bft) N 360 0 min 0 UV-I 0 W/m 9,7 km/h (2 Bft)
04.03.2010 21:50 -0,8 C 65 % 1021,9 hPa 0,0 mm 1,6 km/h (1 Bft) N 360 0 min 0 UV-I 0 W/m 8,0 km/h (2 Bft)
04.03.2010 22:00 -0,9 C 66 % 1022,0 hPa 0,0 mm 0,0 km/h (0 Bft) N 360 0 min 0 UV-I 0 W/m 4,8 km/h (1 Bft)
04.03.2010 22:10 -1,2 C 68 % 1022,0 hPa 0,0 mm 0,0 km/h (0 Bft) N 360 0 min 0 UV-I 0 W/m 3,2 km/h (1 Bft)
04.03.2010 22:20 -1,3 C 67 % 1022,1 hPa 0,0 mm 0,0 km/h (0 Bft) N 360 0 min 0 UV-I 0 W/m 4,8 km/h (1 Bft)
04.03.2010 22:30 -1,4 C 67 % 1022,1 hPa 0,0 mm 0,0 km/h (0 Bft) N 360 0 min 0 UV-I 0 W/m 4,8 km/h (1 Bft)
04.03.2010 22:40 -1,6 C 65 % 1022,1 hPa 0,0 mm 0,0 km/h (0 Bft) N 360 0 min 0 UV-I 0 W/m 4,8 km/h (1 Bft)
04.03.2010 22:50 -1,7 C 63 % 1022,3 hPa 0,0 mm 0,0 km/h (0 Bft) N 360 0 min 0 UV-I 0 W/m 4,8 km/h (1 Bft)
04.03.2010 23:00 -1,7 C 62 % 1022,3 hPa 0,0 mm 0,0 km/h (0 Bft) N 360 0 min 0 UV-I 0 W/m 3,2 km/h (1 Bft)
04.03.2010 23:10 -1,7 C 60 % 1022,3 hPa 0,0 mm 0,0 km/h (0 Bft) N 360 0 min 0 UV-I 0 W/m 1,6 km/h (1 Bft)
04.03.2010 23:20 -1,7 C 59 % 1022,3 hPa 0,0 mm 0,0 km/h (0 Bft) N 360 0 min 0 UV-I 0 W/m 3,2 km/h (1 Bft)
04.03.2010 23:30 -1,7 C 59 % 1022,3 hPa 0,0 mm 0,1 km/h (0 Bft) N 355 0 min 0 UV-I 0 W/m 1,6 km/h (1 Bft)
04.03.2010 23:40 -1,9 C 59 % 1022,3 hPa 0,0 mm 0,3 km/h (0 Bft) N-NW 347 0 min 0 UV-I 0 W/m 4,8 km/h (1 Bft)
04.03.2010 23:50 -2,1 C 60 % 1022,5 hPa 0,0 mm 0,0 km/h (0 Bft) N-NW 347 0 min 0 UV-I 0 W/m 0,0 km/h (0 Bft)
_ Min-Zeit 07:30 17:40 06:40 - 00:00 - - - - - 00:00
Minimum _ -4,2 C 46 % 1017,5 hPa - 0,0 km/h (0 Bft) - - - - - 0,0 km/h (0 Bft)
_ Max-Zeit 15:20 09:00 23:50 00:00 11:50 - - 08:10 12:20 12:50 17:20
Maximum _ 4,6 C 92 % 1022,5 hPa 0,0 mm 6,4 km/h
N-NO (2 Bft)
- - 10 min 2 UV-I 805 W/m 20,9 km/h
NO (4 Bft)
Durchschnitt _ 0,0 C 74 % 1019,1 hPa #0,0 mm 1,2 km/h (1 Bft) N-NO - #6:20 h 1 UV-I 292 W/m 6,1 km/h (2 Bft)